createdAt,value
2018-08-10T00:01:53.461Z,11.07
2018-08-10T00:04:57.681Z,11.20
2018-08-10T00:08:01.907Z,9.93
2018-08-10T00:11:06.168Z,8.03
2018-08-10T00:14:10.402Z,7.27
2018-08-10T00:17:14.748Z,9.50
2018-08-10T00:20:18.961Z,9.07
2018-08-10T00:23:23.190Z,9.83
2018-08-10T00:26:27.400Z,6.43
2018-08-10T00:29:31.612Z,5.30
2018-08-10T00:32:35.855Z,9.37
2018-08-10T00:35:40.060Z,5.67
2018-08-10T00:38:44.265Z,3.97
2018-08-10T00:41:48.476Z,5.37
2018-08-10T00:44:52.732Z,2.30
2018-08-10T00:47:56.979Z,4.63
2018-08-10T00:51:01.253Z,3.57
2018-08-10T00:54:05.465Z,4.83
2018-08-10T00:57:09.684Z,4.60
2018-08-10T01:00:18.360Z,3.33
2018-08-10T01:03:22.601Z,4.53
2018-08-10T01:06:26.808Z,4.20
2018-08-10T01:09:31.033Z,2.57
2018-08-10T01:12:35.236Z,5.20
2018-08-10T01:15:39.438Z,6.90
2018-08-10T01:18:43.624Z,9.23
2018-08-10T01:21:47.881Z,6.07
2018-08-10T01:24:52.085Z,9.97
2018-08-10T01:27:57.679Z,8.23
2018-08-10T01:31:01.884Z,11.93
2018-08-10T01:34:06.180Z,17.67
2018-08-10T01:37:10.410Z,18.43
2018-08-10T01:40:14.744Z,20.27
2018-08-10T01:43:18.977Z,15.20
2018-08-10T01:46:23.194Z,18.43
2018-08-10T01:49:27.428Z,15.13
2018-08-10T01:52:31.655Z,21.93
2018-08-10T01:55:35.872Z,16.73
2018-08-10T01:58:40.077Z,12.57
2018-08-10T02:01:44.345Z,14.63
2018-08-10T02:04:48.586Z,14.13
2018-08-10T02:07:52.801Z,10.17
2018-08-10T02:10:57.041Z,10.90
2018-08-10T02:14:01.268Z,11.50
2018-08-10T02:17:05.526Z,14.57
2018-08-10T02:20:12.339Z,13.77
2018-08-10T02:23:16.578Z,14.77
2018-08-10T02:26:20.773Z,14.97
2018-08-10T02:29:25.030Z,16.27
2018-08-10T02:32:29.217Z,12.77
2018-08-10T02:35:33.420Z,9.23
2018-08-10T02:38:37.621Z,12.07
2018-08-10T02:41:41.832Z,13.97
2018-08-10T02:44:46.054Z,18.03
2018-08-10T02:47:50.759Z,15.80
2018-08-10T02:50:54.985Z,17.30
2018-08-10T02:53:59.358Z,13.30
2018-08-10T02:57:03.565Z,9.83
2018-08-10T03:00:10.457Z,10.00
2018-08-10T03:03:14.669Z,18.73
2018-08-10T03:06:18.892Z,12.83
2018-08-10T03:09:23.301Z,13.70
2018-08-10T03:12:27.528Z,10.67
2018-08-10T03:15:31.777Z,14.90
2018-08-10T03:18:35.990Z,12.43
2018-08-10T03:21:40.215Z,12.67
2018-08-10T03:24:44.409Z,13.83
2018-08-10T03:27:48.663Z,11.13
2018-08-10T03:30:52.860Z,14.33
2018-08-10T03:33:57.081Z,15.97
2018-08-10T03:37:01.309Z,11.00
2018-08-10T03:40:08.430Z,10.73
2018-08-10T03:43:12.633Z,12.63
2018-08-10T03:46:16.837Z,12.27
2018-08-10T03:49:21.065Z,24.07
2018-08-10T03:52:25.293Z,15.27
2018-08-10T03:55:29.518Z,18.67
2018-08-10T03:58:33.732Z,13.53
2018-08-10T04:01:37.969Z,18.67
2018-08-10T04:04:42.218Z,18.67
2018-08-10T04:07:46.417Z,22.60
2018-08-10T04:10:50.608Z,18.97
2018-08-10T04:13:54.820Z,18.53
2018-08-10T04:16:59.033Z,20.03
2018-08-10T04:20:03.224Z,13.17
2018-08-10T04:23:07.857Z,14.53
2018-08-10T04:26:12.061Z,11.70
2018-08-10T04:29:16.356Z,9.67
2018-08-10T04:32:20.874Z,13.10
2018-08-10T04:35:25.090Z,7.83
2018-08-10T04:38:29.306Z,19.80
2018-08-10T04:41:33.529Z,13.87
2018-08-10T04:44:37.720Z,17.27
2018-08-10T04:47:47.817Z,9.37
2018-08-10T04:50:52.061Z,8.87
2018-08-10T04:53:56.273Z,11.50
2018-08-10T04:57:00.516Z,16.80
2018-08-10T05:00:06.509Z,11.97
2018-08-10T05:03:10.721Z,17.23
2018-08-10T05:06:14.957Z,10.60
2018-08-10T05:09:19.221Z,10.80
2018-08-10T05:12:23.406Z,12.30
2018-08-10T05:15:27.608Z,11.23
2018-08-10T05:18:31.817Z,17.50
2018-08-10T05:21:36.185Z,14.23
2018-08-10T05:24:40.405Z,13.20
2018-08-10T05:27:44.612Z,15.90
2018-08-10T05:30:48.849Z,17.40
2018-08-10T05:33:53.069Z,11.07
2018-08-10T05:36:57.332Z,12.83
2018-08-10T05:40:01.574Z,18.73
2018-08-10T05:43:05.825Z,14.23
2018-08-10T05:46:10.069Z,10.83
2018-08-10T05:49:14.319Z,10.80
2018-08-10T05:52:18.605Z,10.77
2018-08-10T05:55:22.828Z,9.70
2018-08-10T05:58:27.016Z,11.50
2018-08-10T06:01:31.236Z,12.93
2018-08-10T06:04:35.457Z,6.27
2018-08-10T06:07:39.670Z,14.57
2018-08-10T06:10:43.893Z,10.13
2018-08-10T06:13:48.109Z,8.07
2018-08-10T06:16:52.309Z,12.03
2018-08-10T06:19:56.631Z,7.83
2018-08-10T06:23:00.841Z,11.93
2018-08-10T06:26:05.012Z,8.47
2018-08-10T06:29:09.204Z,9.33
2018-08-10T06:32:13.409Z,13.53
2018-08-10T06:35:17.618Z,10.00
2018-08-10T06:38:21.856Z,9.83
2018-08-10T06:41:26.065Z,14.60
2018-08-10T06:44:30.264Z,8.20
2018-08-10T06:47:34.476Z,6.33
2018-08-10T06:50:38.684Z,11.80
2018-08-10T06:53:42.901Z,6.83
2018-08-10T06:56:47.132Z,9.73
2018-08-10T06:59:51.309Z,9.07
2018-08-10T07:02:55.549Z,8.77
2018-08-10T07:05:59.736Z,9.70
2018-08-10T07:09:04.493Z,9.57
2018-08-10T07:12:08.709Z,11.77
2018-08-10T07:15:12.979Z,12.70
2018-08-10T07:18:17.213Z,11.03
2018-08-10T07:21:21.461Z,13.63
2018-08-10T07:24:25.721Z,10.40
2018-08-10T07:27:29.942Z,9.17
2018-08-10T07:30:34.221Z,10.77
2018-08-10T07:33:38.472Z,11.20
2018-08-10T07:36:42.707Z,10.87
2018-08-10T07:39:46.914Z,8.67
2018-08-10T07:42:51.178Z,17.03
2018-08-10T07:45:55.369Z,9.00
2018-08-10T07:48:59.604Z,13.73
2018-08-10T07:52:03.880Z,12.97
2018-08-10T07:55:08.112Z,11.67
2018-08-10T07:58:12.323Z,5.10
2018-08-10T08:01:16.582Z,9.70
2018-08-10T08:04:20.785Z,6.33
2018-08-10T08:07:25.013Z,10.33
2018-08-10T08:10:29.346Z,6.13
2018-08-10T08:13:33.733Z,8.67
2018-08-10T08:16:38.061Z,7.40
2018-08-10T08:19:42.345Z,7.33
2018-08-10T08:22:46.497Z,4.23
2018-08-10T08:25:50.741Z,7.57
2018-08-10T08:28:54.956Z,6.70
2018-08-10T08:31:59.205Z,6.50
2018-08-10T08:35:03.505Z,10.47
2018-08-10T08:39:28.021Z,5.17
2018-08-10T08:42:32.261Z,7.60
2018-08-10T08:45:46.455Z,10.43
2018-08-10T08:48:51.613Z,5.63
2018-08-10T08:51:55.866Z,11.43
2018-08-10T08:55:17.229Z,9.17
2018-08-10T08:58:21.589Z,7.20
2018-08-10T09:01:25.825Z,7.90
2018-08-10T09:04:49.521Z,7.50
2018-08-10T09:07:53.730Z,8.87
2018-08-10T09:10:59.120Z,11.10
2018-08-10T09:15:08.464Z,7.13
2018-08-10T09:18:12.780Z,5.00
2018-08-10T09:21:17.005Z,3.47
2018-08-10T09:24:21.225Z,4.23
2018-08-10T09:27:25.425Z,6.47
2018-08-10T09:30:29.642Z,3.43
2018-08-10T09:33:33.856Z,5.63
2018-08-10T09:36:38.072Z,2.07
2018-08-10T09:39:42.310Z,7.63
2018-08-10T09:42:47.037Z,2.60
2018-08-10T09:45:51.286Z,4.63
2018-08-10T09:48:55.505Z,6.83
2018-08-10T09:51:59.770Z,3.23
2018-08-10T09:55:28.887Z,4.60
2018-08-10T09:58:33.146Z,4.50
2018-08-10T10:01:43.467Z,5.23
2018-08-10T10:04:47.789Z,7.53
2018-08-10T10:07:52.041Z,9.63
2018-08-10T10:10:56.262Z,8.00
2018-08-10T10:14:00.495Z,7.07
2018-08-10T10:17:04.745Z,7.50
2018-08-10T10:20:09.271Z,8.33
2018-08-10T10:23:13.516Z,4.00
2018-08-10T10:26:17.731Z,3.60
2018-08-10T10:29:21.944Z,2.47
2018-08-10T10:32:26.158Z,3.00
2018-08-10T10:35:30.397Z,2.10
2018-08-10T10:38:34.609Z,2.10
2018-08-10T10:41:39.006Z,1.70
2018-08-10T10:44:43.222Z,5.53
2018-08-10T10:47:49.703Z,3.37
2018-08-10T10:50:53.930Z,6.50
2018-08-10T10:53:58.185Z,4.37
2018-08-10T10:57:03.145Z,5.43
2018-08-10T11:00:16.312Z,3.13
2018-08-10T11:03:20.613Z,7.53
2018-08-10T11:06:24.907Z,5.57
2018-08-10T11:09:29.168Z,5.37
2018-08-10T11:12:33.461Z,7.73
2018-08-10T11:15:37.694Z,5.47
2018-08-10T11:18:42.102Z,6.23
2018-08-10T11:21:46.397Z,7.77
2018-08-10T11:24:50.667Z,3.70
2018-08-10T11:27:55.612Z,6.33
2018-08-10T11:30:59.887Z,5.77
2018-08-10T11:34:04.192Z,6.87
2018-08-10T11:37:08.605Z,3.77
2018-08-10T11:40:15.662Z,7.40
2018-08-10T11:43:20.250Z,7.53
2018-08-10T11:46:24.533Z,4.70
2018-08-10T11:49:28.742Z,8.33
2018-08-10T11:52:33.109Z,10.30
2018-08-10T11:55:37.373Z,6.07
2018-08-10T11:58:42.684Z,4.77
2018-08-10T12:01:47.181Z,4.67
2018-08-10T12:04:51.483Z,4.97
2018-08-10T12:07:55.842Z,6.17
2018-08-10T12:11:00.102Z,6.57
2018-08-10T12:14:04.529Z,4.20
2018-08-10T12:17:08.805Z,3.80
2018-08-10T12:20:13.108Z,3.73
2018-08-10T12:23:17.374Z,3.83
2018-08-10T12:26:21.759Z,7.60
2018-08-10T12:29:26.098Z,5.90
2018-08-10T12:32:30.345Z,4.73
2018-08-10T12:35:34.617Z,4.97
2018-08-10T12:38:39.698Z,2.00
2018-08-10T12:41:43.957Z,3.27
2018-08-10T12:44:48.257Z,2.90
2018-08-10T12:47:52.517Z,4.17
2018-08-10T12:50:57.927Z,3.70
2018-08-10T12:54:02.174Z,2.63
2018-08-10T12:57:06.470Z,4.20
2018-08-10T13:00:12.417Z,2.03
2018-08-10T13:03:16.703Z,2.93
2018-08-10T13:06:20.841Z,1.37
2018-08-10T13:09:25.085Z,3.57
2018-08-10T13:12:29.301Z,4.80
2018-08-10T13:15:33.568Z,2.93
2018-08-10T13:18:37.765Z,5.13
2018-08-10T13:21:41.990Z,2.87
2018-08-10T13:24:46.251Z,2.23
2018-08-10T13:27:50.489Z,2.87
2018-08-10T13:30:54.729Z,3.37
2018-08-10T13:33:58.992Z,4.40
2018-08-10T13:37:03.243Z,5.77
2018-08-10T13:40:07.477Z,2.90
2018-08-10T13:43:11.697Z,2.53
2018-08-10T13:46:15.916Z,9.30
2018-08-10T13:49:20.157Z,2.40
2018-08-10T13:52:24.405Z,3.03
2018-08-10T13:55:28.621Z,2.20
2018-08-10T13:58:32.838Z,1.67
2018-08-10T14:01:37.114Z,2.77
2018-08-10T14:04:41.436Z,1.73
2018-08-10T14:07:45.738Z,2.13
2018-08-10T14:10:49.952Z,3.90
2018-08-10T14:13:54.232Z,4.10
2018-08-10T14:16:58.683Z,3.13
2018-08-10T14:20:03.064Z,1.87
2018-08-10T14:23:07.397Z,3.00
2018-08-10T14:26:11.650Z,4.40
2018-08-10T14:29:15.890Z,3.20
2018-08-10T14:32:20.133Z,2.37
2018-08-10T14:35:24.365Z,6.70
2018-08-10T14:38:28.647Z,5.07
2018-08-10T14:41:32.909Z,8.03
2018-08-10T14:44:37.152Z,3.27
2018-08-10T14:47:41.417Z,6.23
2018-08-10T14:50:45.713Z,4.47
2018-08-10T14:53:49.934Z,4.17
2018-08-10T14:56:54.379Z,5.73
2018-08-10T14:59:58.625Z,7.30
2018-08-10T15:03:02.860Z,4.40
2018-08-10T15:06:07.108Z,9.40
2018-08-10T15:09:13.345Z,7.43
2018-08-10T15:12:18.156Z,6.93
2018-08-10T15:15:22.204Z,2.50
2018-08-10T15:18:26.421Z,2.10
2018-08-10T15:21:30.650Z,4.00
2018-08-10T15:24:34.878Z,5.87
2018-08-10T15:27:39.639Z,6.43
2018-08-10T15:30:43.914Z,7.73
2018-08-10T15:33:48.472Z,9.63
2018-08-10T15:36:52.712Z,7.97
2018-08-10T15:39:56.981Z,14.10
2018-08-10T15:43:01.213Z,8.13
2018-08-10T15:46:05.713Z,7.00
2018-08-10T15:49:10.004Z,7.20
2018-08-10T15:52:14.287Z,7.03
2018-08-10T15:55:18.585Z,3.63
2018-08-10T15:58:22.828Z,4.50
2018-08-10T16:01:27.068Z,9.70
2018-08-10T16:04:31.375Z,7.00
2018-08-10T16:07:35.607Z,3.13
2018-08-10T16:10:39.828Z,4.47
2018-08-10T16:13:44.050Z,4.33
2018-08-10T16:16:48.272Z,4.13
2018-08-10T16:19:52.496Z,7.30
2018-08-10T16:22:56.733Z,7.13
2018-08-10T16:26:00.998Z,3.77
2018-08-10T16:29:05.657Z,3.87
2018-08-10T16:32:09.938Z,3.47
2018-08-10T16:35:15.083Z,2.80
2018-08-10T16:38:19.354Z,3.33
2018-08-10T16:41:23.630Z,5.93
2018-08-10T16:44:27.867Z,5.23
2018-08-10T16:47:32.066Z,6.50
2018-08-10T16:50:36.296Z,4.77
2018-08-10T16:53:40.501Z,7.17
2018-08-10T16:56:44.750Z,5.37
2018-08-10T16:59:48.965Z,8.27
2018-08-10T17:02:53.208Z,5.77
2018-08-10T17:05:57.432Z,6.97
2018-08-10T17:09:01.669Z,3.90
2018-08-10T17:12:05.909Z,6.17
2018-08-10T17:15:15.876Z,6.40
2018-08-10T17:18:20.081Z,4.27
2018-08-10T17:21:24.300Z,4.50
2018-08-10T17:24:28.503Z,6.33
2018-08-10T17:27:32.708Z,4.93
2018-08-10T17:30:36.917Z,4.33
2018-08-10T17:33:41.233Z,10.27
2018-08-10T17:36:45.440Z,5.40
2018-08-10T17:39:49.665Z,6.17
2018-08-10T17:42:53.896Z,4.10
2018-08-10T17:45:58.104Z,4.70
2018-08-10T17:49:02.316Z,4.57
2018-08-10T17:52:06.557Z,3.50
2018-08-10T17:55:10.808Z,3.50
2018-08-10T17:58:15.020Z,4.83
2018-08-10T18:01:19.243Z,1.97
2018-08-10T18:04:23.476Z,3.10
2018-08-10T18:07:27.715Z,5.50
2018-08-10T18:10:31.897Z,4.70
2018-08-10T18:13:36.120Z,5.03
2018-08-10T18:16:40.360Z,8.83
2018-08-10T18:19:44.586Z,6.43
2018-08-10T18:22:50.313Z,5.43
2018-08-10T18:25:54.536Z,3.90
2018-08-10T18:28:58.792Z,8.17
2018-08-10T18:32:02.962Z,8.57
2018-08-10T18:35:07.984Z,7.50
2018-08-10T18:38:12.187Z,7.00
2018-08-10T18:41:16.448Z,3.83
2018-08-10T18:44:20.640Z,3.07
2018-08-10T18:47:24.850Z,6.63
2018-08-10T18:50:29.251Z,4.80
2018-08-10T18:53:33.419Z,6.57
2018-08-10T18:56:37.649Z,5.63
2018-08-10T18:59:41.912Z,6.33
2018-08-10T19:02:46.321Z,6.60
2018-08-10T19:05:50.544Z,5.23
2018-08-10T19:08:54.772Z,9.77
2018-08-10T19:11:59.040Z,7.83
2018-08-10T19:15:03.240Z,8.47
2018-08-10T19:18:08.624Z,5.53
2018-08-10T19:21:12.859Z,8.03
2018-08-10T19:24:17.055Z,5.93
2018-08-10T19:27:21.326Z,5.83
2018-08-10T19:30:25.986Z,10.03
2018-08-10T19:33:30.228Z,5.10
2018-08-10T19:36:34.453Z,5.97
2018-08-10T19:39:38.707Z,4.77
2018-08-10T19:42:42.897Z,9.60
2018-08-10T19:45:47.124Z,6.07
2018-08-10T19:48:51.621Z,5.67
2018-08-10T19:51:55.857Z,5.17
2018-08-10T19:55:00.061Z,5.27
2018-08-10T19:58:04.350Z,3.63
2018-08-10T20:01:08.564Z,6.43
2018-08-10T20:04:12.845Z,4.37
2018-08-10T20:07:17.046Z,3.30
2018-08-10T20:10:21.293Z,5.07
2018-08-10T20:13:25.488Z,5.30
2018-08-10T20:16:29.694Z,5.00
2018-08-10T20:19:33.912Z,3.47
2018-08-10T20:22:38.140Z,2.93
2018-08-10T20:25:42.357Z,2.80
2018-08-10T20:28:46.584Z,6.03
2018-08-10T20:31:50.788Z,2.83
2018-08-10T20:34:55.068Z,4.13
2018-08-10T20:37:59.261Z,5.57
2018-08-10T20:41:03.472Z,7.23
2018-08-10T20:44:07.833Z,3.83
2018-08-10T20:47:12.049Z,3.70
2018-08-10T20:50:20.166Z,7.37
2018-08-10T20:53:24.385Z,3.53
2018-08-10T20:56:28.662Z,4.50
2018-08-10T20:59:32.885Z,4.27
2018-08-10T21:02:37.152Z,5.33
2018-08-10T21:05:41.353Z,5.20
2018-08-10T21:08:45.577Z,4.33
2018-08-10T21:11:49.838Z,4.53
2018-08-10T21:14:54.048Z,3.10
2018-08-10T21:17:58.308Z,4.87
2018-08-10T21:21:02.529Z,4.77
2018-08-10T21:24:06.782Z,5.07
2018-08-10T21:27:11.125Z,5.50
2018-08-10T21:30:18.740Z,4.53
2018-08-10T21:33:22.982Z,4.40
2018-08-10T21:36:27.224Z,7.30
2018-08-10T21:39:31.489Z,4.50
2018-08-10T21:42:35.736Z,3.97
2018-08-10T21:45:40.016Z,3.33
2018-08-10T21:48:44.218Z,6.67
2018-08-10T21:51:48.482Z,5.20
2018-08-10T21:54:52.740Z,3.63
2018-08-10T21:57:57.019Z,6.93
2018-08-10T22:01:03.025Z,3.07
2018-08-10T22:04:07.296Z,5.37
2018-08-10T22:07:11.589Z,4.80
2018-08-10T22:10:15.806Z,4.30
2018-08-10T22:13:25.480Z,5.63
2018-08-10T22:16:35.018Z,4.63
2018-08-10T22:19:39.249Z,3.63
2018-08-10T22:22:43.457Z,4.40
2018-08-10T22:25:47.832Z,6.20
2018-08-10T22:28:52.036Z,4.17
2018-08-10T22:31:56.299Z,4.30
2018-08-10T22:35:00.484Z,4.33
2018-08-10T22:38:04.696Z,4.73
2018-08-10T22:41:08.949Z,3.20
2018-08-10T22:44:13.259Z,3.20
2018-08-10T22:47:17.496Z,4.03
2018-08-10T22:50:21.716Z,4.63
2018-08-10T22:53:25.988Z,5.83
2018-08-10T22:56:30.269Z,3.43
2018-08-10T22:59:34.451Z,5.20
2018-08-10T23:02:38.714Z,5.17
2018-08-10T23:05:43.005Z,3.40
2018-08-10T23:08:47.270Z,4.73
2018-08-10T23:11:51.460Z,4.20
2018-08-10T23:14:55.648Z,3.43
2018-08-10T23:17:59.894Z,3.67
2018-08-10T23:21:04.136Z,4.33
2018-08-10T23:24:08.394Z,4.33
2018-08-10T23:27:12.602Z,4.27
2018-08-10T23:30:17.468Z,4.53
2018-08-10T23:33:21.677Z,3.53
2018-08-10T23:36:25.893Z,5.77
2018-08-10T23:39:30.106Z,3.97
2018-08-10T23:42:34.341Z,4.73
2018-08-10T23:45:38.584Z,4.17
2018-08-10T23:48:42.788Z,6.00
2018-08-10T23:51:47.001Z,6.27
2018-08-10T23:54:51.213Z,4.33
2018-08-10T23:57:55.453Z,4.33
